sensor_id;sensor_type;location;lat;lon;timestamp;temperature;humidity
18882;DHT22;9573;50.948;11.600;2022-11-04T05:22:45;12.10;99.90
18882;DHT22;9573;50.948;11.600;2022-11-04T05:25:12;10.20;99.90
18882;DHT22;9573;50.948;11.600;2022-11-04T05:27:40;10.30;99.90
18882;DHT22;9573;50.948;11.600;2022-11-04T05:30:08;10.40;99.90
18882;DHT22;9573;50.948;11.600;2022-11-04T05:32:35;10.50;99.90
18882;DHT22;9573;50.948;11.600;2022-11-04T05:35:03;10.60;99.90
18882;DHT22;9573;50.948;11.600;2022-11-04T05:37:30;10.70;99.90
18882;DHT22;9573;50.948;11.600;2022-11-04T05:39:59;10.70;99.90
18882;DHT22;9573;50.948;11.600;2022-11-04T05:42:26;10.80;99.90
18882;DHT22;9573;50.948;11.600;2022-11-04T05:44:54;10.90;99.90
18882;DHT22;9573;50.948;11.600;2022-11-04T05:47:21;11.00;99.90
18882;DHT22;9573;50.948;11.600;2022-11-04T05:49:48;11.10;99.90
18882;DHT22;9573;50.948;11.600;2022-11-04T05:52:15;11.20;99.90
18882;DHT22;9573;50.948;11.600;2022-11-04T05:54:42;11.20;99.90
18882;DHT22;9573;50.948;11.600;2022-11-04T05:57:11;11.20;99.90
18882;DHT22;9573;50.948;11.600;2022-11-04T05:59:38;11.30;99.90
18882;DHT22;9573;50.948;11.600;2022-11-04T06:02:05;11.30;99.90
18882;DHT22;9573;50.948;11.600;2022-11-04T06:04:33;11.30;99.90
18882;DHT22;9573;50.948;11.600;2022-11-04T06:07:00;11.30;99.90
18882;DHT22;9573;50.948;11.600;2022-11-04T06:09:27;11.30;99.90
18882;DHT22;9573;50.948;11.600;2022-11-04T06:12:06;11.30;99.90
18882;DHT22;9573;50.948;11.600;2022-11-04T06:14:35;11.30;99.90
18882;DHT22;9573;50.948;11.600;2022-11-04T14:02:43;13.00;99.90
18882;DHT22;9573;50.948;11.600;2022-11-04T14:06:00;12.90;99.90
18882;DHT22;9573;50.948;11.600;2022-11-04T14:08:29;12.80;99.90
18882;DHT22;9573;50.948;11.600;2022-11-04T14:11:00;12.80;99.90
18882;DHT22;9573;50.948;11.600;2022-11-04T14:13:59;12.90;99.90
18882;DHT22;9573;50.948;11.600;2022-11-04T14:16:44;13.00;99.90
18882;DHT22;9573;50.948;11.600;2022-11-04T14:22:44;13.10;99.90
18882;DHT22;9573;50.948;11.600;2022-11-04T14:25:35;13.10;99.90
18882;DHT22;9573;50.948;11.600;2022-11-04T14:28:18;13.10;99.90
18882;DHT22;9573;50.948;11.600;2022-11-04T14:30:53;13.20;99.90
18882;DHT22;9573;50.948;11.600;2022-11-04T14:33:40;13.20;99.90
18882;DHT22;9573;50.948;11.600;2022-11-04T14:36:38;13.20;99.90
18882;DHT22;9573;50.948;11.600;2022-11-04T14:39:20;13.20;99.90
18882;DHT22;9573;50.948;11.600;2022-11-04T14:41:57;13.10;99.90
18882;DHT22;9573;50.948;11.600;2022-11-04T14:44:30;13.00;99.90
18882;DHT22;9573;50.948;11.600;2022-11-04T14:47:11;12.90;99.90
18882;DHT22;9573;50.948;11.600;2022-11-04T14:49:45;12.90;99.90
18882;DHT22;9573;50.948;11.600;2022-11-04T14:52:25;12.80;99.90
18882;DHT22;9573;50.948;11.600;2022-11-04T14:54:56;12.80;99.90
18882;DHT22;9573;50.948;11.600;2022-11-04T14:57:34;12.60;99.90
18882;DHT22;9573;50.948;11.600;2022-11-04T15:03:22;12.40;99.90
18882;DHT22;9573;50.948;11.600;2022-11-04T15:05:54;12.40;99.90
18882;DHT22;9573;50.948;11.600;2022-11-04T15:08:32;12.30;99.90
18882;DHT22;9573;50.948;11.600;2022-11-04T15:11:05;12.20;99.90
18882;DHT22;9573;50.948;11.600;2022-11-04T15:13:38;12.10;99.90
18882;DHT22;9573;50.948;11.600;2022-11-04T15:16:14;12.00;99.90
18882;DHT22;9573;50.948;11.600;2022-11-04T15:18:45;11.90;99.90
18882;DHT22;9573;50.948;11.600;2022-11-04T15:21:13;11.90;99.90
18882;DHT22;9573;50.948;11.600;2022-11-04T15:23:44;11.70;99.90
18882;DHT22;9573;50.948;11.600;2022-11-04T15:26:20;11.60;99.90
18882;DHT22;9573;50.948;11.600;2022-11-04T15:28:49;11.60;99.90
18882;DHT22;9573;50.948;11.600;2022-11-04T15:31:18;11.50;99.90
18882;DHT22;9573;50.948;11.600;2022-11-04T15:33:49;11.50;99.90
18882;DHT22;9573;50.948;11.600;2022-11-04T15:36:22;11.40;99.90
18882;DHT22;9573;50.948;11.600;2022-11-04T15:38:57;11.40;99.90
18882;DHT22;9573;50.948;11.600;2022-11-04T15:41:29;11.30;99.90
18882;DHT22;9573;50.948;11.600;2022-11-04T15:44:16;11.30;99.90
18882;DHT22;9573;50.948;11.600;2022-11-04T15:46:52;11.30;99.90
18882;DHT22;9573;50.948;11.600;2022-11-04T15:49:22;11.20;99.90
18882;DHT22;9573;50.948;11.600;2022-11-04T15:51:52;11.20;99.90
18882;DHT22;9573;50.948;11.600;2022-11-04T15:54:27;11.20;99.90
18882;DHT22;9573;50.948;11.600;2022-11-04T15:56:58;11.10;99.90
18882;DHT22;9573;50.948;11.600;2022-11-04T15:59:29;11.00;99.90
18882;DHT22;9573;50.948;11.600;2022-11-04T16:01:58;10.90;99.90
18882;DHT22;9573;50.948;11.600;2022-11-04T16:04:27;10.90;99.90
18882;DHT22;9573;50.948;11.600;2022-11-04T16:07:20;10.80;99.90
18882;DHT22;9573;50.948;11.600;2022-11-04T16:09:51;10.70;99.90
18882;DHT22;9573;50.948;11.600;2022-11-04T16:12:33;10.70;99.90
18882;DHT22;9573;50.948;11.600;2022-11-04T16:15:05;10.60;99.90
18882;DHT22;9573;50.948;11.600;2022-11-04T16:17:32;10.50;99.90
18882;DHT22;9573;50.948;11.600;2022-11-04T16:20:02;10.50;99.90
18882;DHT22;9573;50.948;11.600;2022-11-04T16:22:35;10.40;99.90
18882;DHT22;9573;50.948;11.600;2022-11-04T16:25:07;10.40;99.90
18882;DHT22;9573;50.948;11.600;2022-11-04T16:27:36;10.30;99.90
18882;DHT22;9573;50.948;11.600;2022-11-04T16:30:15;10.20;99.90
18882;DHT22;9573;50.948;11.600;2022-11-04T16:32:45;10.20;99.90
18882;DHT22;9573;50.948;11.600;2022-11-04T16:35:16;10.10;99.90
18882;DHT22;9573;50.948;11.600;2022-11-04T16:37:46;10.00;99.90
18882;DHT22;9573;50.948;11.600;2022-11-04T16:40:16;10.00;99.90
18882;DHT22;9573;50.948;11.600;2022-11-04T16:42:44;10.00;99.90
18882;DHT22;9573;50.948;11.600;2022-11-04T16:45:18;9.90;99.90
18882;DHT22;9573;50.948;11.600;2022-11-04T16:47:50;9.90;99.90
18882;DHT22;9573;50.948;11.600;2022-11-04T16:50:18;9.90;99.90
18882;DHT22;9573;50.948;11.600;2022-11-04T16:52:45;9.90;99.90
18882;DHT22;9573;50.948;11.600;2022-11-04T16:55:14;9.80;99.90
18882;DHT22;9573;50.948;11.600;2022-11-04T16:57:42;9.80;99.90
18882;DHT22;9573;50.948;11.600;2022-11-04T17:00:17;9.80;99.90
18882;DHT22;9573;50.948;11.600;2022-11-04T17:02:48;9.70;99.90
18882;DHT22;9573;50.948;11.600;2022-11-04T17:05:17;9.70;99.90
18882;DHT22;9573;50.948;11.600;2022-11-04T17:07:45;9.70;99.90
18882;DHT22;9573;50.948;11.600;2022-11-04T17:10:17;9.70;99.90
18882;DHT22;9573;50.948;11.600;2022-11-04T17:12:49;9.70;99.90
18882;DHT22;9573;50.948;11.600;2022-11-04T17:15:19;9.60;99.90
18882;DHT22;9573;50.948;11.600;2022-11-04T17:17:46;9.60;99.90
18882;DHT22;9573;50.948;11.600;2022-11-04T17:20:15;9.50;99.90
18882;DHT22;9573;50.948;11.600;2022-11-04T17:22:45;9.50;99.90
18882;DHT22;9573;50.948;11.600;2022-11-04T17:25:19;9.50;99.90
18882;DHT22;9573;50.948;11.600;2022-11-04T17:27:47;9.50;99.90
18882;DHT22;9573;50.948;11.600;2022-11-04T17:30:15;9.40;99.90
18882;DHT22;9573;50.948;11.600;2022-11-04T17:32:44;9.40;99.90
18882;DHT22;9573;50.948;11.600;2022-11-04T17:35:12;9.40;99.90
18882;DHT22;9573;50.948;11.600;2022-11-04T17:37:39;9.40;99.90
18882;DHT22;9573;50.948;11.600;2022-11-04T17:40:10;9.40;99.90
18882;DHT22;9573;50.948;11.600;2022-11-04T17:42:41;9.40;99.90
18882;DHT22;9573;50.948;11.600;2022-11-04T17:45:26;9.40;99.90
18882;DHT22;9573;50.948;11.600;2022-11-04T17:47:54;9.30;99.90
18882;DHT22;9573;50.948;11.600;2022-11-04T17:50:21;9.30;99.90
18882;DHT22;9573;50.948;11.600;2022-11-04T17:52:48;9.30;99.90
18882;DHT22;9573;50.948;11.600;2022-11-04T17:55:15;9.30;99.90
18882;DHT22;9573;50.948;11.600;2022-11-04T17:57:44;9.30;99.90
18882;DHT22;9573;50.948;11.600;2022-11-04T18:00:12;9.30;99.90
18882;DHT22;9573;50.948;11.600;2022-11-04T18:02:41;9.30;99.90
18882;DHT22;9573;50.948;11.600;2022-11-04T18:05:08;9.30;99.90
18882;DHT22;9573;50.948;11.600;2022-11-04T18:07:35;9.20;99.90
18882;DHT22;9573;50.948;11.600;2022-11-04T18:10:03;9.20;99.90
18882;DHT22;9573;50.948;11.600;2022-11-04T18:12:31;9.20;99.90
18882;DHT22;9573;50.948;11.600;2022-11-04T18:15:08;9.20;99.90
18882;DHT22;9573;50.948;11.600;2022-11-04T18:17:37;9.30;99.90
18882;DHT22;9573;50.948;11.600;2022-11-04T18:20:06;9.30;99.90
18882;DHT22;9573;50.948;11.600;2022-11-04T18:22:36;9.30;99.90
18882;DHT22;9573;50.948;11.600;2022-11-04T18:25:04;9.30;99.90
18882;DHT22;9573;50.948;11.600;2022-11-04T18:27:33;9.20;99.90
18882;DHT22;9573;50.948;11.600;2022-11-04T18:30:00;9.20;99.90
18882;DHT22;9573;50.948;11.600;2022-11-04T18:32:29;9.20;99.90
18882;DHT22;9573;50.948;11.600;2022-11-04T18:34:56;9.20;99.90
18882;DHT22;9573;50.948;11.600;2022-11-04T18:37:27;9.10;99.90
18882;DHT22;9573;50.948;11.600;2022-11-04T18:39:54;9.10;99.90
18882;DHT22;9573;50.948;11.600;2022-11-04T18:42:23;9.10;99.90
18882;DHT22;9573;50.948;11.600;2022-11-04T18:44:51;9.10;99.90
18882;DHT22;9573;50.948;11.600;2022-11-04T18:47:22;9.10;99.90
18882;DHT22;9573;50.948;11.600;2022-11-04T18:49:50;9.10;99.90
18882;DHT22;9573;50.948;11.600;2022-11-04T18:52:20;9.10;99.90
18882;DHT22;9573;50.948;11.600;2022-11-04T18:54:48;9.10;99.90
18882;DHT22;9573;50.948;11.600;2022-11-04T18:57:18;9.10;99.90
18882;DHT22;9573;50.948;11.600;2022-11-04T18:59:45;9.00;99.90
18882;DHT22;9573;50.948;11.600;2022-11-04T19:02:16;9.00;99.90
18882;DHT22;9573;50.948;11.600;2022-11-04T19:04:46;9.00;99.90
18882;DHT22;9573;50.948;11.600;2022-11-04T19:07:14;9.00;99.90
18882;DHT22;9573;50.948;11.600;2022-11-04T19:09:42;9.00;99.90
18882;DHT22;9573;50.948;11.600;2022-11-04T19:12:09;9.00;99.90
18882;DHT22;9573;50.948;11.600;2022-11-04T19:14:54;9.10;99.90
18882;DHT22;9573;50.948;11.600;2022-11-04T19:17:22;9.10;99.90
18882;DHT22;9573;50.948;11.600;2022-11-04T19:19:51;9.20;99.90
18882;DHT22;9573;50.948;11.600;2022-11-04T19:22:23;9.30;99.90
18882;DHT22;9573;50.948;11.600;2022-11-04T19:24:51;9.30;99.90
18882;DHT22;9573;50.948;11.600;2022-11-04T19:27:22;9.30;99.90
18882;DHT22;9573;50.948;11.600;2022-11-04T19:29:49;9.40;99.90
18882;DHT22;9573;50.948;11.600;2022-11-04T19:32:17;9.40;99.90
18882;DHT22;9573;50.948;11.600;2022-11-04T19:34:48;9.40;99.90
18882;DHT22;9573;50.948;11.600;2022-11-04T19:37:18;9.40;99.90
18882;DHT22;9573;50.948;11.600;2022-11-04T19:39:47;9.40;99.90
18882;DHT22;9573;50.948;11.600;2022-11-04T19:42:15;9.50;99.90
18882;DHT22;9573;50.948;11.600;2022-11-04T19:45:00;9.50;99.90
18882;DHT22;9573;50.948;11.600;2022-11-04T19:47:28;9.50;99.90
18882;DHT22;9573;50.948;11.600;2022-11-04T19:49:55;9.50;99.90
18882;DHT22;9573;50.948;11.600;2022-11-04T19:52:23;9.50;99.90
18882;DHT22;9573;50.948;11.600;2022-11-04T19:54:51;9.50;99.90
18882;DHT22;9573;50.948;11.600;2022-11-04T19:57:19;9.50;99.90
18882;DHT22;9573;50.948;11.600;2022-11-04T19:59:47;9.60;99.90
18882;DHT22;9573;50.948;11.600;2022-11-04T20:02:16;9.50;99.90
18882;DHT22;9573;50.948;11.600;2022-11-04T20:04:43;9.60;99.90
18882;DHT22;9573;50.948;11.600;2022-11-04T20:07:12;9.60;99.90
18882;DHT22;9573;50.948;11.600;2022-11-04T20:09:39;9.60;99.90
18882;DHT22;9573;50.948;11.600;2022-11-04T20:12:08;9.60;99.90
18882;DHT22;9573;50.948;11.600;2022-11-04T20:14:53;9.60;99.90
18882;DHT22;9573;50.948;11.600;2022-11-04T20:17:21;9.50;99.90
18882;DHT22;9573;50.948;11.600;2022-11-04T20:19:49;9.60;99.90
18882;DHT22;9573;50.948;11.600;2022-11-04T20:22:16;9.60;99.90
18882;DHT22;9573;50.948;11.600;2022-11-04T20:24:43;9.50;99.90
18882;DHT22;9573;50.948;11.600;2022-11-04T20:27:11;9.60;99.90
18882;DHT22;9573;50.948;11.600;2022-11-04T20:29:40;9.50;99.90
18882;DHT22;9573;50.948;11.600;2022-11-04T20:32:07;9.50;99.90
18882;DHT22;9573;50.948;11.600;2022-11-04T20:34:34;9.50;99.90
18882;DHT22;9573;50.948;11.600;2022-11-04T20:37:02;9.50;99.90
18882;DHT22;9573;50.948;11.600;2022-11-04T20:39:29;9.40;99.90
18882;DHT22;9573;50.948;11.600;2022-11-04T20:41:56;9.50;99.90
18882;DHT22;9573;50.948;11.600;2022-11-04T20:44:25;9.40;99.90
18882;DHT22;9573;50.948;11.600;2022-11-04T20:46:52;9.40;99.90
18882;DHT22;9573;50.948;11.600;2022-11-04T20:49:19;9.40;99.90
18882;DHT22;9573;50.948;11.600;2022-11-04T20:51:46;9.40;99.90
18882;DHT22;9573;50.948;11.600;2022-11-04T20:54:14;9.30;99.90
18882;DHT22;9573;50.948;11.600;2022-11-04T20:56:42;9.30;99.90
18882;DHT22;9573;50.948;11.600;2022-11-04T20:59:11;9.20;99.90
